Time;durP1;ratioP1;P1;durP2;ratioP2;P2;SDS_P1;SDS_P2;PMS_P1;PMS_P2;Temp;Humidity;BMP_temperature;BMP_pressure;BME280_temperature;BME280_humidity;BME280_pressure;Samples;Min_cycle;Max_cycle;Signal;HPM_P1;HPM_P2
2022/09/29 00:00:55;;;;;;;6.27;4.10;;;;;;;11.87;61.62;95985.69;5017648;28;20192;-71
2022/09/29 00:03:21;;;;;;;5.30;3.77;;;;;;;11.88;61.23;95984.69;5016322;28;20283;-71
2022/09/29 00:05:48;;;;;;;5.60;3.73;;;;;;;11.88;61.68;95980.25;5022667;28;20222;-72
2022/09/29 00:08:14;;;;;;;4.30;3.30;;;;;;;11.91;61.34;95989.56;5018211;28;20459;-69
2022/09/29 00:10:40;;;;;;;5.53;3.83;;;;;;;11.90;61.69;95988.75;5023195;28;20793;-72
2022/09/29 00:13:05;;;;;;;5.43;4.03;;;;;;;11.92;61.78;95988.56;5015675;28;20424;-72
2022/09/29 00:15:31;;;;;;;5.70;3.20;;;;;;;11.91;61.80;95981.69;5025805;28;20197;-71
2022/09/29 00:17:56;;;;;;;4.97;3.40;;;;;;;11.90;61.34;95972.19;5023381;28;20185;-71
2022/09/29 00:20:21;;;;;;;4.27;3.40;;;;;;;11.94;61.72;95968.19;5029897;28;20191;-71
2022/09/29 00:22:50;;;;;;;5.77;3.37;;;;;;;11.93;61.61;95977.84;5027857;28;20199;-69
2022/09/29 00:25:17;;;;;;;4.10;3.50;;;;;;;11.90;61.54;95977.44;5022340;28;20195;-72
2022/09/29 00:27:43;;;;;;;5.47;3.70;;;;;;;11.90;62.04;95967.75;5030333;28;20827;-73
2022/09/29 00:30:08;;;;;;;4.47;3.77;;;;;;;11.90;61.96;95972.19;5025919;28;20442;-72
2022/09/29 00:32:34;;;;;;;5.20;3.10;;;;;;;11.85;62.34;95972.75;5034026;28;20202;-72
2022/09/29 00:34:59;;;;;;;4.40;3.87;;;;;;;11.86;62.35;95970.94;5015509;28;20202;-72
2022/09/29 00:37:25;;;;;;;8.30;4.37;;;;;;;11.88;62.29;95971.56;5040998;28;20215;-72
2022/09/29 00:39:50;;;;;;;7.03;4.30;;;;;;;11.87;62.35;95973.38;5027371;28;20219;-71
2022/09/29 00:42:18;;;;;;;7.83;3.40;;;;;;;11.91;62.42;95977.22;5030018;28;20223;-72
2022/09/29 00:45:01;;;;;;;5.30;3.47;;;;;;;11.95;62.50;95967.19;5022379;28;20192;-72
2022/09/29 00:47:28;;;;;;;4.90;3.77;;;;;;;11.94;62.90;95963.72;5039246;28;20445;-72
2022/09/29 00:50:01;;;;;;;5.67;3.90;;;;;;;11.95;62.82;95970.59;5020516;28;20458;-72
2022/09/29 00:52:41;;;;;;;4.43;3.43;;;;;;;12.00;62.55;95964.00;5035314;28;20444;-72
2022/09/29 00:55:16;;;;;;;8.30;4.03;;;;;;;12.00;62.86;95958.75;5014260;28;20987;-73
2022/09/29 00:57:58;;;;;;;3.57;3.20;;;;;;;12.01;62.70;95958.56;5028194;28;20441;-73
2022/09/29 01:00:24;;;;;;;4.80;3.60;;;;;;;12.02;62.62;95965.44;5020593;28;20977;-73
2022/09/29 01:02:52;;;;;;;3.77;3.33;;;;;;;12.00;62.52;95954.31;5029838;28;20433;-71
2022/09/29 01:05:39;;;;;;;4.10;3.60;;;;;;;12.04;62.74;95954.72;5023291;28;20192;-72
2022/09/29 01:08:11;;;;;;;3.53;3.23;;;;;;;12.03;62.61;95956.56;5018663;28;20894;-71
2022/09/29 01:10:38;;;;;;;3.90;3.43;;;;;;;12.03;62.57;95953.13;5026648;28;20516;-71
2022/09/29 01:13:04;;;;;;;4.57;3.70;;;;;;;11.99;62.73;95952.69;5020720;28;20798;-71
2022/09/29 01:15:30;;;;;;;16.03;3.80;;;;;;;12.03;62.77;95948.69;5028644;28;20436;-71
2022/09/29 01:17:55;;;;;;;3.80;3.37;;;;;;;12.05;62.66;95949.31;5025983;28;20184;-72
2022/09/29 01:20:21;;;;;;;6.23;3.87;;;;;;;11.97;63.04;95942.34;5021388;28;20668;-71
2022/09/29 01:22:53;;;;;;;6.30;3.40;;;;;;;12.00;63.01;95941.19;5026751;28;20188;-71
2022/09/29 01:25:24;;;;;;;4.03;3.00;;;;;;;12.06;63.14;95947.47;5019803;28;20439;-72
2022/09/29 01:28:22;;;;;;;6.50;3.60;;;;;;;12.11;63.15;95943.28;5031724;28;20566;-72
2022/09/29 01:31:02;;;;;;;3.90;3.40;;;;;;;12.13;63.23;95946.53;5025983;28;20861;-72
2022/09/29 01:33:53;;;;;;;3.73;3.30;;;;;;;12.14;62.99;95948.16;5033349;28;20430;-72
2022/09/29 01:36:23;;;;;;;20.03;3.00;;;;;;;12.17;63.15;95946.94;5036165;28;20987;-72
2022/09/29 01:39:26;;;;;;;4.67;3.70;;;;;;;12.18;63.12;95943.31;5027622;28;20438;-71
2022/09/29 01:41:56;;;;;;;4.20;2.93;;;;;;;12.18;62.88;95950.41;5030365;28;20439;-71
2022/09/29 01:44:33;;;;;;;3.60;3.30;;;;;;;12.16;63.38;95942.69;5027635;28;20493;-72
2022/09/29 01:47:15;;;;;;;4.90;3.53;;;;;;;12.17;63.27;95948.78;5030016;28;20532;-73
2022/09/29 01:49:44;;;;;;;4.43;3.47;;;;;;;12.18;63.49;95945.13;5032320;28;20985;-73
2022/09/29 01:52:13;;;;;;;4.33;2.90;;;;;;;12.21;63.64;95952.63;5019388;28;20471;-73
2022/09/29 01:54:49;;;;;;;5.33;3.83;;;;;;;12.15;63.60;95951.59;5031069;28;20436;-72
2022/09/29 01:57:31;;;;;;;4.63;2.90;;;;;;;12.19;63.55;95955.44;5040170;28;20462;-73
2022/09/29 02:00:09;;;;;;;4.23;3.43;;;;;;;12.19;63.21;95955.44;5023672;28;20443;-72
2022/09/29 02:02:52;;;;;;;4.70;3.67;;;;;;;12.23;63.68;95956.69;5033928;28;20479;-72
2022/09/29 02:05:39;;;;;;;5.80;4.50;;;;;;;12.22;63.42;95949.00;5026285;28;20958;-71
2022/09/29 02:08:16;;;;;;;6.67;4.30;;;;;;;12.24;63.58;95957.47;5035674;28;20462;-72
2022/09/29 02:10:49;;;;;;;5.57;4.00;;;;;;;12.24;63.77;95960.13;5022265;28;20431;-73
2022/09/29 02:13:15;;;;;;;6.37;4.27;;;;;;;12.28;63.57;95959.56;5020583;28;20442;-71
2022/09/29 02:15:45;;;;;;;7.80;4.83;;;;;;;12.23;63.49;95955.84;5021375;28;21025;-72
2022/09/29 02:18:16;;;;;;;7.73;3.67;;;;;;;12.19;63.71;95952.81;5028133;28;20431;-71
2022/09/29 02:20:41;;;;;;;4.00;3.60;;;;;;;12.24;63.41;95962.75;5027458;28;20435;-72
2022/09/29 02:23:07;;;;;;;3.73;3.13;;;;;;;12.26;63.66;95955.47;5030330;28;20415;-71
2022/09/29 02:25:35;;;;;;;6.20;4.27;;;;;;;12.28;63.82;95963.97;5032314;28;20198;-71
2022/09/29 02:28:01;;;;;;;4.77;3.83;;;;;;;12.28;63.70;95963.97;5031079;28;20209;-71
2022/09/29 02:30:26;;;;;;;4.13;3.63;;;;;;;12.29;63.90;95961.16;5032158;28;20430;-71
2022/09/29 02:32:52;;;;;;;4.77;4.20;;;;;;;12.31;63.82;95958.34;5031638;28;20191;-71
2022/09/29 02:35:17;;;;;;;4.10;3.53;;;;;;;12.32;63.84;95961.78;5030625;28;20219;-69
2022/09/29 02:37:58;;;;;;;4.30;3.70;;;;;;;12.29;64.07;95960.34;5022024;28;20215;-72
2022/09/29 02:40:26;;;;;;;3.90;3.53;;;;;;;12.34;63.97;95957.97;5039430;28;20203;-71
2022/09/29 02:43:06;;;;;;;4.37;3.10;;;;;;;12.38;63.45;95966.28;5029892;28;20462;-72
2022/09/29 02:45:46;;;;;;;4.27;3.23;;;;;;;12.35;63.57;95964.03;5023329;28;20804;-72
2022/09/29 02:48:35;;;;;;;5.37;3.43;;;;;;;12.34;63.56;95962.41;5015653;28;20463;-72
2022/09/29 02:51:06;;;;;;;4.03;3.63;;;;;;;12.29;63.54;95962.97;5024390;28;20804;-71
2022/09/29 02:53:40;;;;;;;5.43;3.80;;;;;;;12.30;63.93;95961.97;5022738;28;20439;-72
2022/09/29 02:56:30;;;;;;;7.53;3.53;;;;;;;12.34;63.79;95957.16;5028261;28;20448;-71
2022/09/29 02:59:00;;;;;;;5.00;3.30;;;;;;;12.36;63.99;95955.13;5023173;28;20908;-72
2022/09/29 03:01:25;;;;;;;3.67;3.17;;;;;;;12.37;64.15;95948.88;5035434;28;20457;-71
2022/09/29 03:03:51;;;;;;;4.00;3.60;;;;;;;12.41;64.08;95937.78;5043742;28;20943;-70
2022/09/29 03:06:18;;;;;;;6.90;3.40;;;;;;;12.44;63.94;95942.66;5034134;28;20278;-72
2022/09/29 03:08:43;;;;;;;8.20;3.30;;;;;;;12.44;63.91;95940.03;5026205;28;20215;-71
2022/09/29 03:11:08;;;;;;;6.50;3.43;;;;;;;12.39;63.84;95934.53;5016349;28;20435;-72
2022/09/29 03:13:34;;;;;;;5.00;3.80;;;;;;;12.38;63.89;95932.13;5033381;28;20658;-72
2022/09/29 03:16:00;;;;;;;4.93;4.43;;;;;;;12.38;63.91;95940.78;5017527;28;20231;-72
2022/09/29 03:18:26;;;;;;;5.93;5.33;;;;;;;12.37;63.84;95939.16;5028655;28;20187;-72
2022/09/29 03:20:54;;;;;;;8.67;7.70;;;;;;;12.36;63.66;95942.00;5019546;28;20191;-71
2022/09/29 03:23:19;;;;;;;14.90;13.27;;;;;;;12.34;63.85;95942.22;5033827;28;20558;-71
2022/09/29 03:25:45;;;;;;;13.97;8.37;;;;;;;12.27;63.64;95941.34;5021366;28;20468;-72
2022/09/29 03:28:10;;;;;;;8.27;6.40;;;;;;;12.30;64.07;95940.97;5015208;28;20207;-71
2022/09/29 03:30:36;;;;;;;6.10;4.40;;;;;;;12.31;63.94;95936.50;5019274;28;20203;-71
2022/09/29 03:33:01;;;;;;;4.33;3.93;;;;;;;12.29;64.14;95939.34;5019040;28;20176;-71
2022/09/29 03:35:27;;;;;;;4.97;4.00;;;;;;;12.23;64.01;95932.22;5030855;28;20278;-73
2022/09/29 03:37:57;;;;;;;4.70;3.97;;;;;;;12.24;63.86;95925.97;5023946;28;20204;-71
2022/09/29 03:40:22;;;;;;;5.40;4.13;;;;;;;12.24;63.73;95931.22;5033105;28;20186;-71
2022/09/29 03:42:47;;;;;;;13.53;5.47;;;;;;;12.21;63.80;95923.75;5031122;28;20993;-72
2022/09/29 03:45:13;;;;;;;8.93;4.50;;;;;;;12.13;63.79;95920.25;5025669;28;20274;-71
2022/09/29 03:47:38;;;;;;;5.00;4.33;;;;;;;12.07;63.48;95921.03;5022618;28;20291;-72
2022/09/29 03:50:04;;;;;;;4.13;3.63;;;;;;;12.11;63.83;95919.63;5026105;28;20266;-69
2022/09/29 03:52:29;;;;;;;4.37;3.70;;;;;;;12.09;63.25;95916.41;5020669;28;20195;-72
2022/09/29 03:54:55;;;;;;;6.30;3.30;;;;;;;12.06;63.48;95919.41;5021126;28;20187;-71
2022/09/29 03:57:20;;;;;;;4.97;3.17;;;;;;;12.06;63.00;95916.78;5037475;28;20291;-71
2022/09/29 03:59:46;;;;;;;4.83;2.80;;;;;;;11.96;63.29;95914.47;5042914;28;20549;-72
2022/09/29 04:02:12;;;;;;;3.63;3.23;;;;;;;11.93;62.92;95922.72;5044143;28;20318;-71
2022/09/29 04:04:37;;;;;;;6.30;3.60;;;;;;;11.92;62.97;95920.31;5038575;28;20222;-72
2022/09/29 04:07:02;;;;;;;4.67;2.80;;;;;;;11.92;62.62;95922.94;5034527;28;20689;-71
2022/09/29 04:09:28;;;;;;;3.80;3.50;;;;;;;11.88;62.81;95921.69;5043994;28;20239;-72
2022/09/29 04:11:53;;;;;;;4.57;3.10;;;;;;;11.83;62.81;95920.47;5035888;28;20208;-71
2022/09/29 04:14:19;;;;;;;7.20;4.80;;;;;;;11.75;62.88;95920.59;5035729;28;20271;-71
2022/09/29 04:16:44;;;;;;;6.70;5.13;;;;;;;11.72;62.75;95918.34;5042137;28;20234;-72
2022/09/29 04:19:10;;;;;;;6.30;3.80;;;;;;;11.69;62.53;95918.75;5038479;28;20271;-72
2022/09/29 04:21:35;;;;;;;3.90;3.20;;;;;;;11.62;62.65;95926.56;5029175;28;20210;-71
2022/09/29 04:24:01;;;;;;;3.50;3.20;;;;;;;11.58;62.68;95927.94;5045864;28;20229;-72
2022/09/29 04:26:26;;;;;;;5.77;3.30;;;;;;;11.50;63.05;95926.25;5043188;28;20570;-71
2022/09/29 04:28:51;;;;;;;3.77;3.00;;;;;;;11.54;63.21;95924.06;5037659;28;20218;-72
2022/09/29 04:31:17;;;;;;;5.43;3.07;;;;;;;11.55;62.87;95919.63;5042325;28;20271;-71
2022/09/29 04:33:42;;;;;;;5.03;3.10;;;;;;;11.59;62.62;95921.69;5031193;28;20179;-71
2022/09/29 04:36:08;;;;;;;5.17;3.70;;;;;;;11.51;63.01;95925.25;5045569;28;20342;-72
2022/09/29 04:38:34;;;;;;;5.93;3.17;;;;;;;11.45;62.70;95925.19;5038083;28;20175;-72
2022/09/29 04:40:59;;;;;;;4.50;3.17;;;;;;;11.47;62.79;95917.97;5049269;28;20183;-70
2022/09/29 04:43:25;;;;;;;17.97;3.43;;;;;;;11.44;62.72;95918.31;5039234;28;20600;-71
2022/09/29 04:45:50;;;;;;;6.30;3.40;;;;;;;11.36;62.54;95924.50;5045055;28;20179;-71
2022/09/29 04:48:16;;;;;;;6.83;3.50;;;;;;;11.34;62.39;95931.78;5044320;28;20199;-71
2022/09/29 04:50:41;;;;;;;11.23;3.57;;;;;;;11.33;62.71;95938.03;5034553;28;20179;-71
2022/09/29 04:53:08;;;;;;;5.17;3.00;;;;;;;11.33;62.85;95938.03;5036349;28;20237;-70
2022/09/29 04:55:36;;;;;;;6.53;3.50;;;;;;;11.34;62.67;95942.28;5043523;28;20275;-70
2022/09/29 04:58:02;;;;;;;5.90;3.60;;;;;;;11.33;62.91;95935.41;5047891;28;20427;-71
2022/09/29 05:00:27;;;;;;;4.50;3.50;;;;;;;11.31;62.95;95942.66;5032193;28;20513;-71
2022/09/29 05:02:52;;;;;;;4.03;3.60;;;;;;;11.33;63.70;95945.91;5031162;28;20187;-72
2022/09/29 05:05:18;;;;;;;5.60;3.87;;;;;;;11.30;63.15;95941.81;5036241;28;20271;-71
2022/09/29 05:07:44;;;;;;;4.70;3.20;;;;;;;11.33;63.49;95941.44;5032590;28;20332;-71
2022/09/29 05:10:10;;;;;;;4.57;3.77;;;;;;;11.32;63.62;95947.69;5033427;28;20194;-71
2022/09/29 05:12:35;;;;;;;6.07;4.70;;;;;;;11.33;63.64;95956.38;5026283;28;20419;-71
2022/09/29 05:15:01;;;;;;;6.83;4.47;;;;;;;11.34;63.84;95963.25;5035888;28;20265;-71
2022/09/29 05:17:26;;;;;;;3.53;3.23;;;;;;;11.29;63.59;95961.16;5030760;28;20203;-72
2022/09/29 05:19:51;;;;;;;4.10;3.63;;;;;;;11.33;63.50;95959.00;5029042;28;20225;-72
2022/09/29 05:22:23;;;;;;;6.27;3.93;;;;;;;11.30;63.15;95962.78;5027289;28;20263;-71
2022/09/29 05:24:49;;;;;;;3.40;3.10;;;;;;;11.28;63.26;95959.53;5032828;28;20184;-72
2022/09/29 05:27:15;;;;;;;6.13;4.50;;;;;;;11.28;62.93;95966.63;5019874;28;20463;-71
2022/09/29 05:29:40;;;;;;;5.93;4.60;;;;;;;11.27;63.11;95965.00;5013985;28;20470;-72
2022/09/29 05:32:06;;;;;;;5.00;4.13;;;;;;;11.22;63.63;95978.66;5028772;28;20176;-72
2022/09/29 05:34:31;;;;;;;6.93;3.87;;;;;;;11.22;63.63;95974.22;5028213;28;20271;-72
2022/09/29 05:36:57;;;;;;;6.27;4.67;;;;;;;11.28;63.54;95971.84;5037436;28;20195;-72
2022/09/29 05:39:22;;;;;;;6.93;3.87;;;;;;;11.32;63.40;95970.50;5032983;28;20283;-72
2022/09/29 05:41:48;;;;;;;6.73;4.37;;;;;;;11.37;63.41;95961.06;5032926;28;20269;-72
2022/09/29 05:44:13;;;;;;;5.73;4.17;;;;;;;11.35;63.13;95957.00;5020907;28;20196;-72
2022/09/29 05:46:40;;;;;;;12.60;4.70;;;;;;;11.37;63.24;95958.44;5031410;28;20557;-71
2022/09/29 05:49:05;;;;;;;8.33;3.50;;;;;;;11.39;62.99;95965.31;5032076;28;20254;-72
2022/09/29 05:51:30;;;;;;;6.33;4.33;;;;;;;11.27;63.23;95959.75;5040526;28;20449;-72
2022/09/29 05:53:56;;;;;;;7.00;4.60;;;;;;;11.24;63.32;95973.22;5040667;28;20234;-71
2022/09/29 05:56:26;;;;;;;7.33;4.63;;;;;;;11.27;63.26;95967.63;5048029;28;20198;-71
2022/09/29 05:58:52;;;;;;;7.33;4.10;;;;;;;11.14;63.57;95970.94;5019172;28;20181;-70
2022/09/29 06:01:25;;;;;;;6.37;4.57;;;;;;;11.00;63.85;95980.44;5029636;28;20943;-72
2022/09/29 06:03:52;;;;;;;6.90;4.50;;;;;;;11.11;63.92;95976.53;5030668;28;20430;-73
2022/09/29 06:06:23;;;;;;;7.20;5.20;;;;;;;11.21;63.76;95977.03;5028991;28;20479;-71
2022/09/29 06:08:48;;;;;;;8.97;4.70;;;;;;;11.26;63.69;95960.75;5022617;28;20558;-73
2022/09/29 06:11:19;;;;;;;11.80;5.90;;;;;;;11.12;63.38;95976.34;5018948;28;20464;-73
2022/09/29 06:13:47;;;;;;;7.03;5.03;;;;;;;11.10;64.01;95978.31;5035753;28;20203;-73
2022/09/29 06:16:14;;;;;;;5.73;4.70;;;;;;;11.14;64.16;95969.09;5013724;28;20459;-72
2022/09/29 06:18:39;;;;;;;6.63;4.97;;;;;;;11.20;64.25;95981.47;5014421;28;20904;-73
2022/09/29 06:21:08;;;;;;;8.67;4.80;;;;;;;11.27;64.43;95978.09;5014430;28;20572;-74
2022/09/29 06:23:34;;;;;;;7.63;4.53;;;;;;;11.36;64.39;95980.44;5013681;28;20244;-72
2022/09/29 06:26:00;;;;;;;9.03;4.40;;;;;;;11.46;64.22;95988.00;5027625;28;20549;-74
2022/09/29 06:28:30;;;;;;;10.25;4.70;;;;;;;11.42;64.33;95981.50;5026702;28;20859;-74
2022/09/29 06:30:59;;;;;;;9.97;4.80;;;;;;;11.44;64.30;95987.38;5014494;28;20204;-71
2022/09/29 06:33:28;;;;;;;7.43;4.40;;;;;;;11.52;64.36;96000.34;5020183;28;20437;-74
2022/09/29 06:38:38;;;;;;;10.27;4.57;;;;;;;11.44;64.80;96005.72;5021876;28;20466;-72
2022/09/29 06:41:04;;;;;;;7.20;5.23;;;;;;;11.53;64.57;95999.34;5025808;28;20986;-72
2022/09/29 06:43:29;;;;;;;14.53;5.77;;;;;;;11.56;64.24;96005.22;5015919;28;20198;-72
2022/09/29 06:45:55;;;;;;;6.93;5.03;;;;;;;11.58;64.76;96006.66;5011579;28;20428;-73
2022/09/29 06:48:20;;;;;;;18.07;5.47;;;;;;;11.52;64.84;95997.72;5025468;28;20200;-72
2022/09/29 06:50:47;;;;;;;8.63;5.30;;;;;;;11.56;64.92;95995.53;5018600;28;20278;-73
2022/09/29 06:53:13;;;;;;;10.80;5.57;;;;;;;11.68;64.99;96001.09;5020690;28;20196;-73
2022/09/29 06:55:38;;;;;;;12.80;5.60;;;;;;;11.77;64.89;96015.69;5014186;28;20855;-73
2022/09/29 06:58:04;;;;;;;10.17;5.47;;;;;;;11.84;65.12;96005.25;5020021;28;20428;-73
2022/09/29 07:00:29;;;;;;;11.13;5.80;;;;;;;11.87;64.65;96004.06;5013296;28;20667;-74
2022/09/29 07:02:54;;;;;;;5.83;4.63;;;;;;;11.89;64.88;95999.44;5033566;28;20199;-73
2022/09/29 07:05:20;;;;;;;8.83;4.83;;;;;;;11.90;64.63;96003.69;5030347;28;20223;-72
2022/09/29 07:07:48;;;;;;;5.13;4.30;;;;;;;11.92;64.71;96002.50;5022671;28;20247;-73
2022/09/29 07:10:14;;;;;;;11.47;4.87;;;;;;;11.95;64.47;96004.75;5015028;28;20194;-72
2022/09/29 07:12:40;;;;;;;5.73;4.90;;;;;;;12.00;64.41;96000.78;5031753;28;20445;-72
2022/09/29 07:15:06;;;;;;;7.10;5.67;;;;;;;12.07;64.66;96007.69;5023901;28;20485;-73
2022/09/29 07:17:32;;;;;;;7.90;5.33;;;;;;;12.13;64.40;96012.19;5021578;28;20593;-72
2022/09/29 07:19:58;;;;;;;11.30;4.90;;;;;;;12.16;64.20;96010.16;5024431;28;20438;-74
2022/09/29 07:22:23;;;;;;;8.20;5.60;;;;;;;12.22;64.26;96001.53;5016736;28;20200;-73
2022/09/29 07:24:49;;;;;;;13.80;5.70;;;;;;;12.21;64.26;95999.91;5024432;28;20485;-75
2022/09/29 07:27:23;;;;;;;6.30;5.20;;;;;;;12.25;64.18;96009.00;5011587;28;20207;-73
2022/09/29 07:29:50;;;;;;;9.87;5.17;;;;;;;12.29;64.36;96002.38;5017578;28;20497;-74
2022/09/29 07:32:16;;;;;;;9.07;4.57;;;;;;;12.31;64.06;95999.56;5015384;28;20842;-74
2022/09/29 07:34:42;;;;;;;6.17;4.50;;;;;;;12.30;64.04;96004.00;5018937;28;20428;-74
2022/09/29 07:37:07;;;;;;;5.70;4.37;;;;;;;12.25;64.23;96016.91;5010587;28;20839;-74
2022/09/29 07:39:32;;;;;;;6.53;4.83;;;;;;;12.23;64.62;96021.53;5028836;28;20209;-72
2022/09/29 07:41:58;;;;;;;8.37;5.00;;;;;;;12.31;64.66;96004.81;5021689;28;20285;-73
2022/09/29 07:44:23;;;;;;;6.70;4.87;;;;;;;12.39;64.87;96010.72;5021557;28;20254;-73
2022/09/29 07:46:49;;;;;;;9.07;5.87;;;;;;;12.38;64.78;96013.56;5012418;28;20295;-72
2022/09/29 07:49:15;;;;;;;9.20;5.20;;;;;;;12.45;64.74;96014.41;5027120;28;20220;-74
2022/09/29 07:51:40;;;;;;;6.93;5.20;;;;;;;12.55;64.73;96021.94;5013069;28;20190;-73
2022/09/29 07:54:06;;;;;;;6.70;5.30;;;;;;;12.62;64.93;96021.97;5035249;28;20303;-75
2022/09/29 07:56:31;;;;;;;8.00;5.40;;;;;;;12.71;64.68;96019.00;5024468;28;20210;-73
2022/09/29 07:58:57;;;;;;;5.57;4.47;;;;;;;12.78;64.53;96020.84;5026801;28;20702;-74
2022/09/29 08:01:23;;;;;;;8.90;4.90;;;;;;;12.88;64.69;96027.38;5035950;28;20223;-74
2022/09/29 08:03:51;;;;;;;8.03;4.87;;;;;;;12.99;64.33;96028.63;5031222;28;20726;-74
2022/09/29 08:06:16;;;;;;;6.20;5.40;;;;;;;13.06;64.08;96013.69;5025287;28;20208;-73
2022/09/29 08:08:42;;;;;;;6.77;4.70;;;;;;;13.20;63.94;96024.25;5031654;28;20570;-74
2022/09/29 08:11:10;;;;;;;30.43;5.17;;;;;;;13.28;63.74;96025.91;5034164;28;20192;-73
2022/09/29 08:13:36;;;;;;;6.67;5.03;;;;;;;13.38;63.76;96026.31;5025895;28;20609;-74
2022/09/29 08:16:03;;;;;;;5.70;4.53;;;;;;;13.45;63.53;96015.84;5025751;28;20455;-74
2022/09/29 08:18:30;;;;;;;7.43;5.50;;;;;;;13.45;62.93;96015.84;5029271;28;20188;-74
2022/09/29 08:20:56;;;;;;;7.10;5.30;;;;;;;13.43;62.91;96023.13;5032746;28;21092;-73
2022/09/29 08:23:22;;;;;;;5.73;5.20;;;;;;;13.34;62.41;96015.41;5037008;28;20522;-74
2022/09/29 08:25:48;;;;;;;5.93;5.13;;;;;;;13.44;63.02;96027.38;5025232;28;20189;-75
2022/09/29 08:28:13;;;;;;;7.13;4.27;;;;;;;13.42;62.12;96026.75;5036620;28;20214;-74
2022/09/29 08:30:38;;;;;;;8.03;4.77;;;;;;;13.53;62.35;96028.81;5025652;28;20559;-74
2022/09/29 08:33:07;;;;;;;5.47;3.97;;;;;;;13.66;62.46;96028.84;5021712;28;20225;-73
2022/09/29 08:35:33;;;;;;;4.10;3.70;;;;;;;13.80;62.16;96034.13;5025067;28;20690;-74
2022/09/29 08:37:58;;;;;;;4.83;3.63;;;;;;;13.87;61.47;96029.66;5022811;28;20558;-73
2022/09/29 08:40:28;;;;;;;5.17;3.70;;;;;;;13.90;61.13;96029.25;5024988;28;20199;-73
2022/09/29 08:43:08;;;;;;;5.20;3.63;;;;;;;14.02;60.82;96032.09;5026959;28;20232;-74
2022/09/29 08:45:40;;;;;;;5.63;3.90;;;;;;;14.20;60.55;96038.56;5025968;28;20423;-72
2022/09/29 08:48:13;;;;;;;3.47;3.17;;;;;;;14.39;60.39;96043.03;5035643;28;20458;-74
2022/09/29 08:50:46;;;;;;;3.70;2.97;;;;;;;14.44;59.38;96048.47;5020189;28;20561;-74
2022/09/29 08:53:14;;;;;;;7.10;3.70;;;;;;;14.54;59.10;96048.06;5043002;28;20929;-73
2022/09/29 08:55:43;;;;;;;4.83;3.20;;;;;;;14.55;58.34;96048.91;5030028;28;20435;-74
2022/09/29 08:58:14;;;;;;;4.37;2.97;;;;;;;14.58;57.93;96057.19;5037317;28;20501;-73
2022/09/29 09:00:52;;;;;;;3.77;3.43;;;;;;;14.78;57.85;96045.81;5025526;28;20872;-74
2022/09/29 09:03:23;;;;;;;8.23;3.60;;;;;;;15.07;57.85;96048.97;5036857;28;20929;-73
2022/09/29 09:06:10;;;;;;;5.40;3.27;;;;;;;15.24;56.60;96040.59;5029725;28;20454;-74
2022/09/29 09:08:47;;;;;;;5.43;3.17;;;;;;;15.35;56.34;96042.56;5039450;28;20550;-74
2022/09/29 09:11:15;;;;;;;7.90;3.47;;;;;;;15.50;56.04;96051.00;5027937;28;20835;-73
2022/09/29 09:14:18;;;;;;;5.37;2.97;;;;;;;15.66;56.26;96056.78;5033014;28;20509;-74
2022/09/29 09:16:56;;;;;;;3.10;2.50;;;;;;;15.59;54.23;96062.13;5020634;28;20878;-73
2022/09/29 09:19:35;;;;;;;3.07;2.80;;;;;;;15.55;53.91;96062.75;5029820;28;20411;-73
2022/09/29 09:22:20;;;;;;;3.60;2.87;;;;;;;15.47;53.62;96067.28;5025487;28;20418;-73
2022/09/29 09:25:04;;;;;;;2.93;2.67;;;;;;;15.50;54.54;96074.75;5039173;28;20437;-75
2022/09/29 09:27:34;;;;;;;5.93;2.83;;;;;;;15.49;54.85;96069.69;5022653;28;20440;-74
2022/09/29 09:30:25;;;;;;;4.40;2.47;;;;;;;15.43;54.62;96068.69;5025196;28;20520;-72
2022/09/29 09:32:55;;;;;;;8.23;2.57;;;;;;;15.38;53.81;96071.16;5019890;28;20924;-73
2022/09/29 09:35:44;;;;;;;4.53;2.30;;;;;;;15.45;53.74;96077.22;5019382;28;20442;-72
2022/09/29 09:38:15;;;;;;;5.90;2.40;;;;;;;15.51;54.00;96076.38;5035275;28;20431;-73
2022/09/29 09:40:46;;;;;;;4.70;2.23;;;;;;;15.54;53.98;96074.34;5028737;28;20992;-75
2022/09/29 09:43:42;;;;;;;4.47;2.73;;;;;;;15.60;53.94;96078.78;5021968;28;20435;-73
2022/09/29 09:46:35;;;;;;;2.60;1.83;;;;;;;15.66;53.72;96077.94;5021740;28;21037;-73
2022/09/29 09:49:13;;;;;;;4.30;2.50;;;;;;;15.68;53.24;96070.59;5024278;28;20466;-74
2022/09/29 09:51:46;;;;;;;3.10;2.00;;;;;;;15.69;53.10;96071.44;5028447;28;20425;-71
2022/09/29 09:54:42;;;;;;;2.57;2.27;;;;;;;15.74;51.74;96069.78;5037483;28;20427;-74
2022/09/29 09:57:43;;;;;;;3.27;2.10;;;;;;;15.86;52.06;96072.56;5018085;28;21158;-73
2022/09/29 10:00:24;;;;;;;5.57;2.73;;;;;;;16.05;52.29;96070.78;5032351;28;20434;-73
2022/09/29 10:02:51;;;;;;;5.17;2.37;;;;;;;16.20;52.24;96072.31;5029425;28;20432;-73
2022/09/29 10:05:26;;;;;;;7.03;2.00;;;;;;;16.17;51.38;96070.91;5033324;28;21069;-74
2022/09/29 10:07:52;;;;;;;4.93;3.00;;;;;;;16.25;51.84;96069.84;5020626;28;20693;-73
2022/09/29 10:10:20;;;;;;;3.90;2.13;;;;;;;16.32;51.95;96073.22;5033116;28;20431;-74
2022/09/29 10:12:55;;;;;;;4.00;2.80;;;;;;;16.36;51.60;96081.53;5033910;28;20249;-73
2022/09/29 10:15:24;;;;;;;2.53;2.23;;;;;;;16.35;51.50;96080.75;5028339;28;21005;-75
2022/09/29 10:18:01;;;;;;;1.70;1.60;;;;;;;16.20;50.38;96072.31;5025284;28;20453;-74
2022/09/29 10:20:36;;;;;;;2.63;1.77;;;;;;;16.25;50.76;96078.56;5024482;28;20427;-74
2022/09/29 10:23:25;;;;;;;2.60;1.73;;;;;;;16.32;50.75;96069.78;5027940;28;21034;-73
2022/09/29 10:26:00;;;;;;;3.43;2.03;;;;;;;16.44;50.96;96070.69;5021778;28;21077;-73
2022/09/29 10:28:30;;;;;;;2.53;2.03;;;;;;;16.52;50.20;96072.22;5015538;28;20477;-74
2022/09/29 10:30:55;;;;;;;2.00;1.80;;;;;;;16.68;50.17;96071.69;5032149;28;20541;-75
2022/09/29 10:33:22;;;;;;;2.90;2.00;;;;;;;16.67;48.25;96078.00;5020648;28;20791;-75
2022/09/29 10:35:51;;;;;;;3.23;1.67;;;;;;;16.89;49.00;96074.91;5021847;28;20195;-74
2022/09/29 10:38:22;;;;;;;2.03;1.53;;;;;;;17.08;48.45;96065.16;5020362;28;20424;-74
2022/09/29 10:41:04;;;;;;;2.87;1.73;;;;;;;17.28;48.89;96072.88;5031371;28;20442;-74
2022/09/29 10:43:41;;;;;;;4.23;2.20;;;;;;;17.39;47.93;96070.53;5019342;28;20433;-74
2022/09/29 10:46:35;;;;;;;4.93;1.90;;;;;;;17.53;46.99;96069.31;5012009;28;22114;-74
2022/09/29 10:49:08;;;;;;;3.83;1.63;;;;;;;17.74;46.85;96086.56;5021773;28;20473;-74
2022/09/29 10:51:33;;;;;;;5.30;1.70;;;;;;;17.87;45.63;96079.44;5018397;28;20802;-74
2022/09/29 10:54:07;;;;;;;6.30;1.80;;;;;;;17.92;45.75;96075.09;5032039;28;20434;-73
2022/09/29 10:56:32;;;;;;;1.40;1.30;;;;;;;17.98;44.92;96080.56;4992764;28;20209;-73
2022/09/29 10:58:59;;;;;;;3.17;1.90;;;;;;;17.95;44.69;96079.94;5028394;28;20522;-74
2022/09/29 11:01:25;;;;;;;2.17;1.20;;;;;;;18.07;44.93;96079.19;5031691;28;20198;-74
2022/09/29 11:04:02;;;;;;;5.17;1.83;;;;;;;18.09;44.36;96071.81;5027211;28;20526;-74
2022/09/29 11:06:31;;;;;;;3.93;1.37;;;;;;;18.25;43.94;96067.69;5027347;28;20445;-74
2022/09/29 11:09:05;;;;;;;3.07;1.77;;;;;;;18.33;44.03;96070.03;5027246;28;20466;-73
2022/09/29 11:11:40;;;;;;;5.33;1.30;;;;;;;18.24;44.11;96069.53;5027129;28;20960;-73
2022/09/29 11:14:22;;;;;;;2.70;1.43;;;;;;;18.16;43.17;96071.72;5026595;28;20426;-73
2022/09/29 11:16:54;;;;;;;2.37;1.43;;;;;;;18.07;43.57;96069.41;5020911;28;20474;-74
2022/09/29 11:19:19;;;;;;;4.00;1.70;;;;;;;17.99;43.19;96076.88;5046647;28;20423;-74
2022/09/29 11:22:15;;;;;;;3.57;2.17;;;;;;;17.84;42.81;96074.59;5030410;28;20552;-74
2022/09/29 11:24:53;;;;;;;1.40;1.30;;;;;;;17.88;44.20;96075.75;5036557;28;20568;-73
2022/09/29 11:27:50;;;;;;;3.63;1.53;;;;;;;17.96;43.92;96078.09;5022987;28;20465;-74
2022/09/29 11:30:18;;;;;;;1.57;1.37;;;;;;;18.03;42.95;96080.66;5026325;28;20435;-73
2022/09/29 11:33:15;;;;;;;2.80;1.50;;;;;;;17.95;43.15;96081.78;5018524;28;20442;-75
2022/09/29 11:35:49;;;;;;;3.40;1.37;;;;;;;18.05;43.24;96086.56;5028166;28;20786;-73
2022/09/29 11:38:30;;;;;;;2.53;1.43;;;;;;;18.02;42.31;96077.22;5021319;28;20845;-74
2022/09/29 11:41:17;;;;;;;4.07;1.70;;;;;;;18.20;42.79;96075.53;5032076;28;20435;-74
2022/09/29 11:43:46;;;;;;;2.40;1.57;;;;;;;18.45;43.20;96090.44;5016297;28;20810;-74
2022/09/29 11:46:36;;;;;;;2.70;1.40;;;;;;;18.53;42.36;96082.91;5018549;28;20447;-73
2022/09/29 11:49:21;;;;;;;5.20;1.40;;;;;;;18.47;41.86;96075.06;5025081;28;20498;-73